Time;durP1;ratioP1;P1;durP2;ratioP2;P2;SDS_P1;SDS_P2;PMS_P1;PMS_P2;Temp;Humidity;BMP_temperature;BMP_pressure;BME280_temperature;BME280_humidity;BME280_pressure;Samples;Min_cycle;Max_cycle;Signal;HPM_P1;HPM_P2
2021/12/27 00:02:25;;;;;;;;;;;;;;;-10.54;90.22;99709.55;1653083;87;20126;-75
2021/12/27 00:04:51;;;;;;;;;;;;;;;-10.58;90.17;99715.72;1653322;87;20161;-74
2021/12/27 00:07:18;;;;;;;;;;;;;;;-10.66;90.00;99707.80;1653203;87;20123;-75
2021/12/27 00:09:46;;;;;;;;;;;;;;;-10.67;90.49;99718.91;1653171;86;21139;-75
2021/12/27 00:12:12;;;;;;;;;;;;;;;-10.63;90.94;99713.27;1653045;87;20126;-77
2021/12/27 00:14:38;;;;;;;;;;;;;;;-10.59;91.23;99717.22;1653307;86;20099;-76
2021/12/27 00:17:05;;;;;;;;;;;;;;;-10.61;90.88;99718.72;1653052;86;20945;-76
2021/12/27 00:19:34;;;;;;;;;;;;;;;-10.68;90.53;99719.92;1653147;86;20110;-77
2021/12/27 00:22:00;;;;;;;;;;;;;;;-10.73;90.28;99722.27;1653380;87;21052;-75
2021/12/27 00:24:26;;;;;;;;;;;;;;;-10.74;90.79;99721.94;1653106;86;20127;-76
2021/12/27 00:26:53;;;;;;;;;;;;;;;-10.74;90.79;99721.94;1653155;86;20094;-74
2021/12/27 00:29:19;;;;;;;;;;;;;;;-10.78;90.42;99731.75;1653115;87;20272;-74
2021/12/27 00:31:45;;;;;;;;;;;;;;;-10.83;90.25;99731.44;1653345;87;20425;-74
2021/12/27 00:34:11;;;;;;;;;;;;;;;-10.87;90.15;99732.79;1653107;87;20565;-76
2021/12/27 00:36:38;;;;;;;;;;;;;;;-10.91;90.08;99736.28;1653050;85;20452;-76
2021/12/27 00:39:04;;;;;;;;;;;;;;;-10.96;89.98;99738.62;1653146;87;20170;-76
2021/12/27 00:41:30;;;;;;;;;;;;;;;-11.02;89.91;99732.22;1653044;87;20182;-77
2021/12/27 00:43:57;;;;;;;;;;;;;;;-11.04;89.93;99729.41;1650934;86;20401;-76
2021/12/27 00:46:23;;;;;;;;;;;;;;;-11.07;89.97;99737.71;1647229;87;21479;-75
2021/12/27 00:48:49;;;;;;;;;;;;;;;-11.08;89.96;99734.23;1646456;86;20140;-76
2021/12/27 00:51:15;;;;;;;;;;;;;;;-11.08;89.97;99733.41;1641289;86;20157;-76
2021/12/27 00:53:42;;;;;;;;;;;;;;;-11.09;90.00;99733.91;1639610;87;20170;-77
2021/12/27 00:56:09;;;;;;;;;;;;;;;-11.09;90.00;99735.23;1641998;86;20149;-76
2021/12/27 00:58:35;;;;;;;;;;;;;;;-11.09;89.97;99734.41;1638877;87;21567;-77
2021/12/27 01:01:01;;;;;;;;;;;;;;;-11.11;89.79;99726.63;1640657;85;20470;-77
2021/12/27 01:03:29;;;;;;;;;;;;;;;-11.14;89.73;99730.12;1638813;87;20532;-77
2021/12/27 01:05:55;;;;;;;;;;;;;;;-11.14;89.77;99734.92;1646754;86;20195;-78
2021/12/27 01:08:22;;;;;;;;;;;;;;;-11.16;89.73;99727.64;1649088;86;20127;-78
2021/12/27 01:13:44;;;;;;;;;;;;;;;-11.22;89.54;99734.13;1592220;89;20156;-79
2021/12/27 01:16:10;;;;;;;;;;;;;;;-11.25;89.49;99735.30;1650025;85;20159;-79
2021/12/27 01:18:39;;;;;;;;;;;;;;;-11.27;89.49;99733.81;1660172;84;20489;-74
2021/12/27 01:21:06;;;;;;;;;;;;;;;-11.27;89.57;99737.78;1625903;86;20484;-74
2021/12/27 01:23:32;;;;;;;;;;;;;;;-11.30;89.59;99740.77;1636476;86;21136;-76
2021/12/27 01:25:58;;;;;;;;;;;;;;;-11.33;89.62;99735.31;1649619;85;20161;-77
2021/12/27 01:28:24;;;;;;;;;;;;;;;-11.35;89.70;99735.48;1635336;85;20140;-75
2021/12/27 01:30:51;;;;;;;;;;;;;;;-11.34;89.84;99740.29;1635962;85;20171;-75
2021/12/27 01:33:19;;;;;;;;;;;;;;;-11.36;89.80;99739.13;1640327;85;20131;-73
2021/12/27 01:35:46;;;;;;;;;;;;;;;-11.39;89.78;99738.64;1654927;84;21120;-73
2021/12/27 01:38:13;;;;;;;;;;;;;;;-11.39;89.86;99736.83;1669013;85;20110;-73
2021/12/27 01:40:42;;;;;;;;;;;;;;;-11.39;89.86;99737.33;1653882;86;20187;-74
2021/12/27 01:43:15;;;;;;;;;;;;;;;-11.41;89.75;99733.52;1654315;85;20446;-76
2021/12/27 01:45:45;;;;;;;;;;;;;;;-11.42;89.74;99737.16;1658748;85;20478;-74
2021/12/27 01:48:11;;;;;;;;;;;;;;;-11.46;89.55;99735.84;1657424;85;21218;-74
2021/12/27 01:50:40;;;;;;;;;;;;;;;-11.50;89.40;99742.48;1650651;85;20117;-74
2021/12/27 01:53:06;;;;;;;;;;;;;;;-11.51;89.74;99743.98;1675386;85;20141;-74
2021/12/27 01:55:33;;;;;;;;;;;;;;;-11.54;89.81;99738.52;1658748;84;20122;-75
2021/12/27 01:57:59;;;;;;;;;;;;;;;-11.59;89.71;99738.23;1657924;84;20143;-74
2021/12/27 02:00:26;;;;;;;;;;;;;;;-11.60;89.78;99741.87;1692730;84;21130;-74
2021/12/27 02:02:53;;;;;;;;;;;;;;;-11.58;90.23;99735.91;1672699;84;20145;-74
2021/12/27 02:05:19;;;;;;;;;;;;;;;-11.51;90.61;99736.86;1665386;85;20157;-74
2021/12/27 02:07:46;;;;;;;;;;;;;;;-11.44;90.73;99743.13;1651625;86;20181;-78
2021/12/27 02:10:12;;;;;;;;;;;;;;;-11.41;90.75;99734.02;1653922;86;20439;-77
2021/12/27 02:12:39;;;;;;;;;;;;;;;-11.39;90.80;99727.55;1648495;86;21518;-76
2021/12/27 02:15:11;;;;;;;;;;;;;;;-11.35;90.73;99733.34;1650790;87;20090;-78
2021/12/27 02:17:35;;;;;;;;;;;;;;;-11.33;90.74;99737.97;1653910;86;20411;-77
2021/12/27 02:20:10;;;;;;;;;;;;;;;-11.31;90.76;99738.62;1655432;85;20449;-77
2021/12/27 02:22:40;;;;;;;;;;;;;;;-11.31;90.66;99735.14;1651450;86;20114;-77
2021/12/27 02:25:07;;;;;;;;;;;;;;;-11.29;90.76;99735.80;1628738;87;21088;-78
2021/12/27 02:27:34;;;;;;;;;;;;;;;-11.27;90.82;99735.13;1650998;86;20171;-78
2021/12/27 02:30:01;;;;;;;;;;;;;;;-11.29;90.90;99738.45;1654566;86;20448;-78
2021/12/27 02:32:27;;;;;;;;;;;;;;;-11.31;91.17;99740.45;1655300;86;20080;-80
2021/12/27 02:34:55;;;;;;;;;;;;;;;-11.37;91.08;99735.33;1648472;86;20191;-81
2021/12/27 02:37:21;;;;;;;;;;;;;;;-11.43;90.96;99738.66;1630258;87;21176;-81
2021/12/27 02:39:47;;;;;;;;;;;;;;;-11.46;90.88;99742.97;1631793;86;20081;-81
2021/12/27 02:42:17;;;;;;;;;;;;;;;-11.51;90.75;99745.30;1630166;86;20102;-80
2021/12/27 02:44:43;;;;;;;;;;;;;;;-11.55;90.66;99747.45;1628476;86;20123;-80
2021/12/27 02:47:09;;;;;;;;;;;;;;;-11.57;90.71;99756.11;1642210;85;20210;-80
2021/12/27 02:49:36;;;;;;;;;;;;;;;-11.57;90.74;99761.41;1653692;86;21167;-81
2021/12/27 02:52:02;;;;;;;;;;;;;;;-11.55;90.96;99760.70;1645744;85;20149;-80
2021/12/27 02:54:29;;;;;;;;;;;;;;;-11.46;91.29;99758.87;1629831;86;20229;-81
2021/12/27 02:56:55;;;;;;;;;;;;;;;-11.37;91.42;99759.18;1635421;86;20099;-81
2021/12/27 02:59:21;;;;;;;;;;;;;;;-11.31;91.49;99759.83;1634948;86;20449;-81
2021/12/27 03:01:48;;;;;;;;;;;;;;;-11.23;91.56;99761.62;1642190;86;21177;-80
2021/12/27 03:04:15;;;;;;;;;;;;;;;-11.09;91.85;99770.20;1657211;85;20097;-81
2021/12/27 03:06:41;;;;;;;;;;;;;;;-10.95;92.02;99768.12;1644643;86;20102;-78
2021/12/27 03:09:07;;;;;;;;;;;;;;;-10.81;92.09;99760.77;1628656;87;20098;-78
2021/12/27 03:11:33;;;;;;;;;;;;;;;-10.68;92.19;99773.47;1626554;87;20153;-78
2021/12/27 03:13:59;;;;;;;;;;;;;;;-10.56;92.24;99777.89;1625865;87;21159;-77
2021/12/27 03:16:26;;;;;;;;;;;;;;;-10.44;92.39;99773.34;1629358;87;20174;-78
2021/12/27 03:18:54;;;;;;;;;;;;;;;-10.36;92.35;99773.77;1629436;87;20125;-78
2021/12/27 03:21:20;;;;;;;;;;;;;;;-10.29;92.34;99773.39;1625301;87;20436;-78
2021/12/27 03:23:47;;;;;;;;;;;;;;;-10.21;92.29;99775.98;1626164;87;20133;-78
2021/12/27 03:26:14;;;;;;;;;;;;;;;-10.16;92.24;99774.92;1625454;87;21199;-78
2021/12/27 03:28:40;;;;;;;;;;;;;;;-10.13;92.13;99773.25;1630461;87;20161;-78
2021/12/27 03:31:08;;;;;;;;;;;;;;;-10.06;92.15;99777.34;1628264;87;20484;-79
2021/12/27 03:33:36;;;;;;;;;;;;;;;-10.00;92.18;99777.46;1637762;86;20510;-78
2021/12/27 03:36:07;;;;;;;;;;;;;;;-9.96;91.94;99778.44;1629224;86;20188;-79
2021/12/27 03:38:38;;;;;;;;;;;;;;;-9.93;92.00;99774.92;1638815;86;21176;-79
2021/12/27 03:41:06;;;;;;;;;;;;;;;-9.86;92.12;99781.17;1628228;87;20137;-79
2021/12/27 03:43:32;;;;;;;;;;;;;;;-9.81;92.15;99781.44;1624150;87;20454;-79
2021/12/27 03:45:59;;;;;;;;;;;;;;;-9.74;92.25;99781.55;1629501;86;20195;-79
2021/12/27 03:48:25;;;;;;;;;;;;;;;-9.70;92.36;99789.48;1624945;87;20098;-79
2021/12/27 03:50:52;;;;;;;;;;;;;;;-9.68;92.31;99786.97;1627941;87;21506;-78
2021/12/27 03:53:18;;;;;;;;;;;;;;;-9.63;92.40;99785.61;1628005;86;20114;-77
2021/12/27 03:55:45;;;;;;;;;;;;;;;-9.57;92.59;99791.03;1628085;86;20134;-79
2021/12/27 03:58:24;;;;;;;;;;;;;;;-9.48;92.79;99793.94;1628516;87;20277;-79
2021/12/27 04:00:49;;;;;;;;;;;;;;;-9.39;93.02;99790.19;1626815;87;20185;-79
2021/12/27 04:03:16;;;;;;;;;;;;;;;-9.28;93.26;99794.75;1631734;86;21644;-74
2021/12/27 04:05:42;;;;;;;;;;;;;;;-9.17;94.00;99800.41;1650375;85;20104;-81
2021/12/27 04:08:12;;;;;;;;;;;;;;;-9.08;94.65;99797.16;1667244;85;20095;-81
2021/12/27 04:10:39;;;;;;;;;;;;;;;-9.01;94.80;99802.89;1665834;85;20175;-77
2021/12/27 04:13:07;;;;;;;;;;;;;;;-8.94;94.84;99799.00;1659714;85;20147;-77
2021/12/27 04:15:33;;;;;;;;;;;;;;;-8.92;94.84;99802.30;1651170;86;21772;-73
2021/12/27 04:18:00;;;;;;;;;;;;;;;-8.89;95.01;99807.25;1651274;86;20198;-74
2021/12/27 04:20:28;;;;;;;;;;;;;;;-8.84;95.21;99813.36;1650623;86;20436;-74
2021/12/27 04:22:55;;;;;;;;;;;;;;;-8.81;95.26;99817.80;1650693;86;20513;-73
2021/12/27 04:25:22;;;;;;;;;;;;;;;-8.78;95.37;99821.94;1651503;85;20117;-72
2021/12/27 04:27:49;;;;;;;;;;;;;;;-8.74;95.44;99821.89;1651472;86;21156;-74
2021/12/27 04:30:16;;;;;;;;;;;;;;;-8.70;95.74;99826.66;1652834;86;20145;-72
2021/12/27 04:32:42;;;;;;;;;;;;;;;-8.66;95.92;99833.23;1651610;86;20122;-73
2021/12/27 04:35:09;;;;;;;;;;;;;;;-8.66;95.92;99830.57;1651320;85;20140;-73
2021/12/27 04:37:36;;;;;;;;;;;;;;;-8.66;95.82;99839.06;1651627;85;20435;-75
2021/12/27 04:40:05;;;;;;;;;;;;;;;-8.64;95.85;99842.87;1651823;85;21056;-73
2021/12/27 04:42:32;;;;;;;;;;;;;;;-8.64;95.91;99844.20;1653180;85;20457;-72
2021/12/27 04:44:59;;;;;;;;;;;;;;;-8.66;95.96;99851.86;1649167;86;20194;-72
2021/12/27 04:47:27;;;;;;;;;;;;;;;-8.70;95.92;99851.94;1650528;86;20165;-72
2021/12/27 04:49:53;;;;;;;;;;;;;;;-8.73;96.04;99856.30;1648375;86;20148;-74
2021/12/27 04:52:19;;;;;;;;;;;;;;;-8.77;96.09;99860.84;1639291;86;23317;-75
2021/12/27 04:54:46;;;;;;;;;;;;;;;-8.81;96.14;99861.70;1624908;87;20461;-74
2021/12/27 04:57:13;;;;;;;;;;;;;;;-8.81;96.32;99861.70;1636155;86;20465;-75
2021/12/27 04:59:39;;;;;;;;;;;;;;;-8.77;96.56;99860.84;1648324;85;20140;-76
2021/12/27 05:02:06;;;;;;;;;;;;;;;-8.76;96.59;99856.66;1641957;84;20183;-75
2021/12/27 05:04:32;;;;;;;;;;;;;;;-8.73;96.61;99866.95;1651424;86;21095;-76
2021/12/27 05:06:58;;;;;;;;;;;;;;;-8.69;96.87;99877.55;1650469;86;20255;-76
2021/12/27 05:09:25;;;;;;;;;;;;;;;-8.60;97.11;99877.42;1651845;85;20424;-74
2021/12/27 05:11:51;;;;;;;;;;;;;;;-8.56;97.05;99876.88;1651489;86;20446;-74
2021/12/27 05:14:17;;;;;;;;;;;;;;;-8.53;97.00;99879.67;1651355;85;20170;-75
2021/12/27 05:16:44;;;;;;;;;;;;;;;-8.49;97.00;99879.12;1649894;86;20664;-73
2021/12/27 05:19:11;;;;;;;;;;;;;;;-8.48;96.90;99883.94;1652941;86;20132;-72
2021/12/27 05:21:37;;;;;;;;;;;;;;;-8.50;96.79;99886.78;1650599;86;20104;-72
2021/12/27 05:24:04;;;;;;;;;;;;;;;-8.50;96.65;99885.95;1651376;86;21997;-72
2021/12/27 05:26:31;;;;;;;;;;;;;;;-8.53;96.66;99885.82;1652585;86;20144;-72
2021/12/27 05:28:58;;;;;;;;;;;;;;;-8.59;96.47;99890.55;1682953;84;21022;-72
2021/12/27 05:31:24;;;;;;;;;;;;;;;-8.64;96.60;99896.92;1677953;85;20129;-72
2021/12/27 05:33:51;;;;;;;;;;;;;;;-8.67;96.79;99902.14;1640533;86;20178;-72
2021/12/27 05:36:17;;;;;;;;;;;;;;;-8.75;96.64;99904.89;1678436;84;20136;-72
2021/12/27 05:38:44;;;;;;;;;;;;;;;-8.84;96.58;99901.98;1677103;84;20117;-72
2021/12/27 05:41:12;;;;;;;;;;;;;;;-8.84;97.08;99896.67;1661183;85;20532;-72
2021/12/27 05:43:38;;;;;;;;;;;;;;;-8.76;97.58;99895.75;1664230;85;20452;-72
2021/12/27 05:46:05;;;;;;;;;;;;;;;-8.79;97.26;99900.11;1659778;85;20126;-73
2021/12/27 05:48:31;;;;;;;;;;;;;;;-8.82;97.31;99901.30;1674948;84;20155;-72
2021/12/27 05:50:57;;;;;;;;;;;;;;;-8.82;97.42;99905.30;1673288;85;20090;-73
2021/12/27 05:53:25;;;;;;;;;;;;;;;-8.79;97.70;99908.09;1669984;85;21918;-74
2021/12/27 05:55:51;;;;;;;;;;;;;;;-8.77;97.78;99908.74;1654046;85;20430;-77
2021/12/27 05:58:18;;;;;;;;;;;;;;;-8.76;97.72;99910.39;1639374;86;20195;-78
2021/12/27 06:00:44;;;;;;;;;;;;;;;-8.74;97.85;99911.87;1651320;85;20182;-78
2021/12/27 06:03:11;;;;;;;;;;;;;;;-8.75;97.71;99912.05;1650824;86;20098;-78
2021/12/27 06:05:37;;;;;;;;;;;;;;;-8.76;97.84;99908.56;1649551;86;21124;-78
2021/12/27 06:08:04;;;;;;;;;;;;;;;-8.75;97.93;99910.72;1650605;86;20107;-74
2021/12/27 06:10:31;;;;;;;;;;;;;;;-8.76;97.88;99917.05;1647953;86;20126;-77
2021/12/27 06:12:58;;;;;;;;;;;;;;;-8.78;97.95;99924.38;1631131;86;20138;-74
2021/12/27 06:15:24;;;;;;;;;;;;;;;-8.76;98.11;99927.69;1650220;86;20094;-75
2021/12/27 06:17:52;;;;;;;;;;;;;;;-8.78;98.00;99921.72;1649338;86;20126;-74
2021/12/27 06:20:19;;;;;;;;;;;;;;;-8.80;98.05;99928.55;1652062;86;20106;-78
2021/12/27 06:22:52;;;;;;;;;;;;;;;-8.79;98.20;99923.56;1650730;86;20430;-72
2021/12/27 06:25:18;;;;;;;;;;;;;;;-8.77;98.32;99923.38;1648206;86;20458;-73
2021/12/27 06:27:45;;;;;;;;;;;;;;;-8.75;98.50;99926.68;1651369;86;20102;-74
2021/12/27 06:30:13;;;;;;;;;;;;;;;-8.75;98.68;99924.02;1651532;86;21110;-72
2021/12/27 06:32:39;;;;;;;;;;;;;;;-8.75;98.85;99927.51;1651974;85;20118;-73
2021/12/27 06:35:06;;;;;;;;;;;;;;;-8.75;98.87;99927.51;1646426;85;20111;-73
2021/12/27 06:37:34;;;;;;;;;;;;;;;-8.72;99.08;99928.48;1637903;86;20091;-74
2021/12/27 06:40:00;;;;;;;;;;;;;;;-8.68;99.13;99931.60;1635009;85;20175;-70
2021/12/27 06:42:26;;;;;;;;;;;;;;;-8.71;99.00;99930.13;1638973;86;22330;-76
2021/12/27 06:44:53;;;;;;;;;;;;;;;-8.73;98.89;99933.98;1635447;86;20578;-75
2021/12/27 06:47:19;;;;;;;;;;;;;;;-8.72;99.05;99929.80;1631864;86;20463;-69
2021/12/27 06:49:47;;;;;;;;;;;;;;;-8.69;99.34;99934.77;1653585;85;20125;-66
2021/12/27 06:52:13;;;;;;;;;;;;;;;-8.72;99.10;99932.97;1644556;86;20180;-71
2021/12/27 06:54:41;;;;;;;;;;;;;;;-8.82;98.79;99935.89;1625599;86;21181;-69
2021/12/27 06:57:07;;;;;;;;;;;;;;;-8.87;98.85;99934.78;1654516;86;20167;-69
2021/12/27 06:59:34;;;;;;;;;;;;;;;-8.89;98.98;99936.80;1645193;85;20115;-69
2021/12/27 07:02:00;;;;;;;;;;;;;;;-8.90;99.12;99937.30;1600683;87;20520;-70
2021/12/27 07:04:31;;;;;;;;;;;;;;;-8.85;99.42;99937.59;1627011;86;20157;-69
2021/12/27 07:06:55;;;;;;;;;;;;;;;-8.78;99.73;99938.52;1630193;86;21116;-68
2021/12/27 07:09:24;;;;;;;;;;;;;;;-8.66;100.00;99946.34;1628307;86;20217;-66
2021/12/27 07:11:51;;;;;;;;;;;;;;;-8.60;100.00;99946.13;1625220;86;20085;-67
2021/12/27 07:14:18;;;;;;;;;;;;;;;-8.66;99.45;99946.34;1603814;87;20196;-68
2021/12/27 07:16:44;;;;;;;;;;;;;;;-8.67;99.55;99946.06;1659776;83;20663;-71
2021/12/27 07:19:12;;;;;;;;;;;;;;;-8.62;99.70;99952.14;1636106;86;40093;-72
2021/12/27 07:21:38;;;;;;;;;;;;;;;-8.60;99.74;99960.77;1629353;85;20993;-72
2021/12/27 07:24:06;;;;;;;;;;;;;;;-8.62;99.53;99964.11;1650353;85;20180;-74
2021/12/27 07:26:33;;;;;;;;;;;;;;;-8.63;99.45;99963.80;1660245;86;20172;-74
2021/12/27 07:29:00;;;;;;;;;;;;;;;-8.61;99.57;99965.77;1655258;85;20158;-72
2021/12/27 07:31:27;;;;;;;;;;;;;;;-8.57;99.64;99971.55;1654980;86;21788;-71
2021/12/27 07:33:54;;;;;;;;;;;;;;;-8.57;99.52;99968.89;1652277;86;20478;-71
2021/12/27 07:36:21;;;;;;;;;;;;;;;-8.55;99.61;99969.54;1644423;86;20168;-71
2021/12/27 07:38:47;;;;;;;;;;;;;;;-8.54;99.55;99967.20;1657185;86;20112;-71
2021/12/27 07:41:13;;;;;;;;;;;;;;;-8.53;99.56;99966.19;1653794;86;20238;-74
2021/12/27 07:43:39;;;;;;;;;;;;;;;-8.52;99.66;99969.17;1655068;85;21070;-73
2021/12/27 07:46:06;;;;;;;;;;;;;;;-8.49;99.80;99967.48;1653341;85;20296;-75
2021/12/27 07:48:33;;;;;;;;;;;;;;;-8.38;100.00;99960.38;1630497;86;20485;-72
2021/12/27 07:51:01;;;;;;;;;;;;;;;-8.30;100.00;99963.42;1643296;85;20144;-75
2021/12/27 07:53:28;;;;;;;;;;;;;;;-8.26;100.00;99960.20;1669773;85;20503;-74
2021/12/27 07:55:55;;;;;;;;;;;;;;;-8.25;99.94;99963.19;1653212;86;21856;-78
2021/12/27 07:58:21;;;;;;;;;;;;;;;-8.27;99.63;99956.39;1650365;86;20105;-76
2021/12/27 08:00:50;;;;;;;;;;;;;;;-8.30;99.52;99964.25;1643112;85;20191;-74
2021/12/27 08:03:20;;;;;;;;;;;;;;;-8.23;99.81;99972.33;1649581;86;20104;-73
2021/12/27 08:05:47;;;;;;;;;;;;;;;-8.18;100.00;99972.09;1653818;85;20145;-74
2021/12/27 08:08:14;;;;;;;;;;;;;;;-8.08;100.00;99971.28;1652569;85;23285;-71
2021/12/27 08:10:41;;;;;;;;;;;;;;;-7.97;100.00;99969.16;1650072;86;20479;-76
2021/12/27 08:13:08;;;;;;;;;;;;;;;-7.95;99.95;99975.13;1651683;85;20108;-75
2021/12/27 08:15:34;;;;;;;;;;;;;;;-7.95;99.76;99975.95;1637813;86;20192;-71
2021/12/27 08:18:00;;;;;;;;;;;;;;;-7.90;99.89;99970.07;1649694;86;20561;-77
2021/12/27 08:20:27;;;;;;;;;;;;;;;-7.87;99.72;99969.70;1652239;85;21041;-75
2021/12/27 08:22:54;;;;;;;;;;;;;;;-7.89;99.37;99974.39;1648919;86;20217;-75
2021/12/27 08:25:20;;;;;;;;;;;;;;;-7.90;99.36;99971.41;1648699;85;20224;-79
2021/12/27 08:27:47;;;;;;;;;;;;;;;-7.88;99.64;99981.38;1649921;86;20588;-75
2021/12/27 08:30:13;;;;;;;;;;;;;;;-7.83;99.86;99979.80;1652087;85;20196;-75
2021/12/27 08:32:42;;;;;;;;;;;;;;;-7.80;99.88;99979.43;1648532;85;20602;-80
2021/12/27 08:35:10;;;;;;;;;;;;;;;-7.77;99.75;99971.57;1634618;86;20439;-72
2021/12/27 08:37:36;;;;;;;;;;;;;;;-7.75;99.62;99977.03;1651069;86;20204;-76
2021/12/27 08:40:04;;;;;;;;;;;;;;;-7.70;99.67;99975.14;1651262;86;20468;-73
2021/12/27 08:42:30;;;;;;;;;;;;;;;-7.65;99.57;99980.73;1649999;86;20173;-75
2021/12/27 08:44:56;;;;;;;;;;;;;;;-7.59;99.60;99977.32;1650616;86;21141;-73
2021/12/27 08:47:23;;;;;;;;;;;;;;;-7.56;99.27;99977.45;1649942;86;20493;-73
2021/12/27 08:49:49;;;;;;;;;;;;;;;-7.58;98.83;99978.97;1651555;85;20176;-74
2021/12/27 08:52:15;;;;;;;;;;;;;;;-7.71;98.14;99974.81;1652205;86;20185;-75
2021/12/27 08:54:42;;;;;;;;;;;;;;;-7.81;98.19;99975.11;1650172;86;20183;-75
2021/12/27 08:57:09;;;;;;;;;;;;;;;-7.79;98.78;99973.09;1650982;86;21472;-74
2021/12/27 08:59:36;;;;;;;;;;;;;;;-7.73;99.05;99979.00;1650550;86;20168;-75
2021/12/27 09:02:04;;;;;;;;;;;;;;;-7.72;99.08;99975.33;1650510;86;20227;-75
2021/12/27 09:04:31;;;;;;;;;;;;;;;-7.75;98.99;99973.03;1650854;85;20285;-74
2021/12/27 09:06:58;;;;;;;;;;;;;;;-7.72;99.27;99970.50;1644476;85;20172;-74
2021/12/27 09:09:25;;;;;;;;;;;;;;;-7.73;99.21;99975.52;1624353;87;21032;-76
2021/12/27 09:11:51;;;;;;;;;;;;;;;-7.79;99.13;99971.75;1624865;86;20196;-78
2021/12/27 09:14:17;;;;;;;;;;;;;;;-7.86;99.19;99973.52;1624579;87;20155;-75
2021/12/27 09:16:44;;;;;;;;;;;;;;;-7.93;99.22;99967.27;1626730;87;20288;-73
2021/12/27 09:19:11;;;;;;;;;;;;;;;-7.91;99.71;99964.42;1626724;87;20107;-74
2021/12/27 09:21:37;;;;;;;;;;;;;;;-7.92;99.76;99968.09;1616689;87;21163;-75
2021/12/27 09:24:05;;;;;;;;;;;;;;;-7.90;99.97;99962.08;1626185;86;20151;-75
2021/12/27 09:26:31;;;;;;;;;;;;;;;-7.86;100.00;99962.02;1645097;86;20095;-75
2021/12/27 09:28:58;;;;;;;;;;;;;;;-7.85;100.00;99959.17;1650731;86;20765;-74
2021/12/27 09:31:25;;;;;;;;;;;;;;;-7.85;99.86;99957.02;1650767;86;20092;-73
2021/12/27 09:33:51;;;;;;;;;;;;;;;-7.84;99.87;99964.00;1650535;86;21107;-69
2021/12/27 09:36:18;;;;;;;;;;;;;;;-7.83;99.84;99968.31;1645378;85;20137;-66
2021/12/27 09:38:45;;;;;;;;;;;;;;;-7.81;100.00;99974.28;1652922;85;20100;-69
2021/12/27 09:41:14;;;;;;;;;;;;;;;-7.82;99.81;99971.30;1650644;86;20207;-72
2021/12/27 09:43:40;;;;;;;;;;;;;;;-7.83;99.80;99969.64;1650619;86;20176;-69
2021/12/27 09:46:08;;;;;;;;;;;;;;;-7.80;100.00;99973.27;1653013;86;20279;-78
2021/12/27 09:48:35;;;;;;;;;;;;;;;-7.78;100.00;99973.91;1654037;85;20128;-69
2021/12/27 09:51:02;;;;;;;;;;;;;;;-7.77;100.00;99970.23;1650773;86;20154;-69
2021/12/27 09:53:28;;;;;;;;;;;;;;;-7.70;100.00;99975.97;1639617;86;20213;-69
2021/12/27 09:55:54;;;;;;;;;;;;;;;-7.63;100.00;99971.22;1651208;86;20153;-67
2021/12/27 09:58:20;;;;;;;;;;;;;;;-7.59;100.00;99967.98;1650954;86;21462;-75
2021/12/27 10:00:47;;;;;;;;;;;;;;;-7.57;100.00;99961.96;1652071;86;20525;-72
2021/12/27 10:03:13;;;;;;;;;;;;;;;-7.51;100.00;99957.72;1650269;86;20214;-70
2021/12/27 10:05:40;;;;;;;;;;;;;;;-7.40;100.00;99954.52;1668443;83;20746;-73
2021/12/27 10:08:06;;;;;;;;;;;;;;;-7.27;100.00;99960.50;1649935;86;20152;-79
2021/12/27 10:10:35;;;;;;;;;;;;;;;-7.29;100.00;99954.53;1664725;84;21121;-69
2021/12/27 10:13:11;;;;;;;;;;;;;;;-7.33;100.00;99958.91;1657375;84;20104;-74
2021/12/27 10:15:41;;;;;;;;;;;;;;;-7.35;100.00;99959.61;1652031;85;20116;-71
2021/12/27 10:18:12;;;;;;;;;;;;;;;-7.44;99.98;99966.08;1658904;85;20120;-69
2021/12/27 10:20:38;;;;;;;;;;;;;;;-7.48;100.00;99975.47;1656371;85;20149;-75
2021/12/27 10:23:04;;;;;;;;;;;;;;;-7.51;100.00;99968.38;1664264;85;21152;-74
2021/12/27 10:25:31;;;;;;;;;;;;;;;-7.51;100.00;99973.72;1664229;85;20165;-73
2021/12/27 10:28:00;;;;;;;;;;;;;;;-7.56;100.00;99972.95;1654645;85;20462;-73
2021/12/27 10:30:29;;;;;;;;;;;;;;;-7.60;99.96;99974.84;1663666;85;20154;-72
2021/12/27 10:33:16;;;;;;;;;;;;;;;-7.62;100.00;99968.88;1676176;85;20184;-72
2021/12/27 10:35:57;;;;;;;;;;;;;;;-7.56;100.00;99967.61;1652224;85;21178;-71
2021/12/27 10:38:36;;;;;;;;;;;;;;;-7.45;100.00;99954.27;1639171;86;21096;-70
2021/12/27 10:41:05;;;;;;;;;;;;;;;-7.37;100.00;99951.48;1615225;86;21109;-74
2021/12/27 10:43:38;;;;;;;;;;;;;;;-7.27;100.00;99957.83;1664766;85;20117;-76
2021/12/27 10:46:13;;;;;;;;;;;;;;;-7.25;100.00;99951.80;1643049;86;20177;-74
2021/12/27 10:48:57;;;;;;;;;;;;;;;-7.24;100.00;99960.95;1650012;86;21148;-71
2021/12/27 10:51:26;;;;;;;;;;;;;;;-7.23;100.00;99963.93;1649665;86;20435;-72
2021/12/27 10:53:55;;;;;;;;;;;;;;;-7.23;100.00;99964.44;1659970;84;20178;-72
2021/12/27 10:56:24;;;;;;;;;;;;;;;-7.29;99.83;99962.53;1616037;87;20151;-72
2021/12/27 10:58:53;;;;;;;;;;;;;;;-7.27;100.00;99960.50;1657159;86;20245;-79
2021/12/27 11:01:20;;;;;;;;;;;;;;;-7.25;100.00;99962.47;1655731;86;21139;-71
2021/12/27 11:03:51;;;;;;;;;;;;;;;-7.25;100.00;99951.80;1639540;86;20269;-72
2021/12/27 11:06:20;;;;;;;;;;;;;;;-7.27;99.96;99953.83;1648681;85;20478;-71
2021/12/27 11:08:48;;;;;;;;;;;;;;;-7.32;99.97;99953.89;1656664;85;20143;-71
2021/12/27 11:11:15;;;;;;;;;;;;;;;-7.29;100.00;99949.19;1618820;87;20168;-73
2021/12/27 11:13:43;;;;;;;;;;;;;;;-7.27;100.00;99954.66;1643805;86;21079;-74
2021/12/27 11:16:09;;;;;;;;;;;;;;;-7.27;100.00;99959.16;1629183;86;20185;-73
2021/12/27 11:18:36;;;;;;;;;;;;;;;-7.25;100.00;99957.95;1624393;86;20132;-72
2021/12/27 11:21:06;;;;;;;;;;;;;;;-7.21;100.00;99962.41;1633475;86;20184;-72
2021/12/27 11:23:32;;;;;;;;;;;;;;;-7.20;100.00;99954.72;1609226;88;20431;-76
2021/12/27 11:26:07;;;;;;;;;;;;;;;-7.19;100.00;99951.03;1625995;87;21051;-75
2021/12/27 11:28:37;;;;;;;;;;;;;;;-7.17;100.00;99955.67;1626485;87;20151;-74
2021/12/27 11:31:24;;;;;;;;;;;;;;;-7.19;100.00;99949.20;1651152;86;20172;-74
2021/12/27 11:33:57;;;;;;;;;;;;;;;-7.23;100.00;99943.92;1627354;86;20200;-74
2021/12/27 11:36:29;;;;;;;;;;;;;;;-7.27;100.00;99953.32;1635812;86;20180;-74
2021/12/27 11:38:57;;;;;;;;;;;;;;;-7.33;99.97;99946.91;1643632;86;21155;-75
2021/12/27 11:41:27;;;;;;;;;;;;;;;-7.34;100.00;99947.92;1633606;85;20198;-71
2021/12/27 11:43:57;;;;;;;;;;;;;;;-7.24;100.00;99952.11;1662975;84;20125;-72
2021/12/27 11:46:26;;;;;;;;;;;;;;;-7.20;100.00;99951.55;1633553;86;20464;-72
2021/12/27 11:48:54;;;;;;;;;;;;;;;-7.25;100.00;99943.28;1661572;85;20284;-73
2021/12/27 11:51:33;;;;;;;;;;;;;;;-7.24;100.00;99935.59;1652567;86;21174;-76
2021/12/27 11:54:00;;;;;;;;;;;;;;;-7.15;100.00;99937.12;1650314;86;20138;-73
2021/12/27 11:56:41;;;;;;;;;;;;;;;-7.11;100.00;99941.56;1650596;85;20146;-73
2021/12/27 11:59:29;;;;;;;;;;;;;;;-7.04;100.00;99940.61;1652422;86;20488;-77
2021/12/27 12:01:56;;;;;;;;;;;;;;;-6.97;100.00;99948.67;1651547;86;20139;-71
2021/12/27 12:04:42;;;;;;;;;;;;;;;-6.94;100.00;99938.95;1652362;86;21512;-74
2021/12/27 12:07:09;;;;;;;;;;;;;;;-6.90;100.00;99932.17;1652431;86;20155;-74
2021/12/27 12:09:47;;;;;;;;;;;;;;;-6.88;100.00;99926.64;1653923;86;20161;-75
2021/12/27 12:12:14;;;;;;;;;;;;;;;-6.90;99.98;99920.16;1653030;85;20181;-75
2021/12/27 12:14:42;;;;;;;;;;;;;;;-6.84;100.00;99926.57;1643381;86;20203;-78
2021/12/27 12:17:13;;;;;;;;;;;;;;;-6.78;100.00;99925.28;1656750;85;20165;-73
2021/12/27 12:19:43;;;;;;;;;;;;;;;-6.76;100.00;99910.41;1650083;86;20164;-72
2021/12/27 12:22:37;;;;;;;;;;;;;;;-6.73;100.00;99912.69;1641246;86;20176;-73
2021/12/27 12:25:21;;;;;;;;;;;;;;;-6.73;100.00;99916.19;1655349;85;20799;-73
2021/12/27 12:28:11;;;;;;;;;;;;;;;-6.73;100.00;99918.85;1660846;85;20181;-74
2021/12/27 12:30:43;;;;;;;;;;;;;;;-6.73;100.00;99918.85;1661200;85;21547;-74
2021/12/27 12:33:14;;;;;;;;;;;;;;;-6.74;99.94;99929.22;1664866;86;20431;-72
2021/12/27 12:35:47;;;;;;;;;;;;;;;-6.79;99.57;99929.48;1663305;84;20171;-73
2021/12/27 12:38:19;;;;;;;;;;;;;;;-6.90;99.29;99937.52;1661893;86;20198;-73
2021/12/27 12:40:52;;;;;;;;;;;;;;;-6.96;99.40;99928.97;1657423;85;20146;-71
2021/12/27 12:43:31;;;;;;;;;;;;;;;-7.01;99.68;99928.22;1644647;86;20980;-73
2021/12/27 12:45:58;;;;;;;;;;;;;;;-7.04;100.00;99931.78;1619144;86;20592;-73
2021/12/27 12:48:28;;;;;;;;;;;;;;;-7.07;100.00;99934.32;1663962;86;20105;-69